createdAt,value
2023-02-26T19:20:21.507Z,4.07
2023-02-26T19:22:48.865Z,4.01
2023-02-26T19:25:17.117Z,3.96
2023-02-26T19:27:43.945Z,3.67
2023-02-26T19:30:11.427Z,3.90
2023-02-26T19:32:38.594Z,3.95
2023-02-26T19:35:07.338Z,3.93
2023-02-26T19:37:34.522Z,3.82
2023-02-26T19:40:01.466Z,3.87
2023-02-26T19:42:28.637Z,3.76
2023-02-26T19:44:55.689Z,3.73
2023-02-26T19:47:23.687Z,3.84
2023-02-26T19:49:50.691Z,3.80
2023-02-26T19:52:17.873Z,3.76
2023-02-26T19:54:44.911Z,3.75
2023-02-26T19:57:11.951Z,3.77
2023-02-26T19:59:38.999Z,3.81
2023-02-26T20:02:06.236Z,3.74
2023-02-26T20:04:33.790Z,3.79
2023-02-26T20:07:00.946Z,3.72
2023-02-26T20:09:28.291Z,3.63
2023-02-26T20:11:55.550Z,3.62
2023-02-26T20:14:22.527Z,3.38
2023-02-26T20:16:49.499Z,3.55
2023-02-26T20:19:16.662Z,3.60
2023-02-26T20:21:44.119Z,3.62
2023-02-26T20:24:11.406Z,3.65
2023-02-26T20:26:38.819Z,3.70
2023-02-26T20:29:05.780Z,3.67
2023-02-26T20:31:32.897Z,3.69
2023-02-26T20:34:00.042Z,3.63
2023-02-26T20:36:27.141Z,3.61
2023-02-26T20:38:54.151Z,3.65
2023-02-26T20:41:21.131Z,3.61
2023-02-26T20:43:48.198Z,3.65
2023-02-26T20:46:15.360Z,3.67
2023-02-26T20:48:44.276Z,3.64
2023-02-26T20:51:12.410Z,3.64
2023-02-26T20:53:40.216Z,3.64
2023-02-26T20:56:07.651Z,3.61
2023-02-26T20:58:34.785Z,3.65
2023-02-26T21:01:01.784Z,3.58
2023-02-26T21:03:28.751Z,3.64
2023-02-26T21:05:56.325Z,3.66
2023-02-26T21:08:23.690Z,3.65
2023-02-26T21:10:51.896Z,3.56
2023-02-26T21:13:19.438Z,3.62
2023-02-26T21:15:46.666Z,3.61
2023-02-26T21:18:13.673Z,3.64
2023-02-26T21:20:40.780Z,3.60
2023-02-26T21:23:07.720Z,3.62
2023-02-26T21:25:34.897Z,3.62
2023-02-26T21:28:02.210Z,3.59
2023-02-26T21:30:29.210Z,3.58
2023-02-26T21:32:56.419Z,3.57
2023-02-26T21:35:23.550Z,3.60
2023-02-26T21:37:50.497Z,3.44
2023-02-26T21:40:17.868Z,3.42
2023-02-26T21:42:44.869Z,3.41
2023-02-26T21:45:12.537Z,3.33
2023-02-26T21:47:39.539Z,3.37
2023-02-26T21:50:07.437Z,3.12
2023-02-26T21:52:34.736Z,3.32
2023-02-26T21:55:01.787Z,3.24
2023-02-26T21:57:30.167Z,3.27
2023-02-26T21:59:57.247Z,3.21
2023-02-26T22:02:24.446Z,3.25
2023-02-26T22:04:51.498Z,3.30
2023-02-26T22:07:18.476Z,3.25
2023-02-26T22:09:47.313Z,3.26
2023-02-26T22:12:15.086Z,3.23
2023-02-26T22:14:42.021Z,3.23
2023-02-26T22:17:09.080Z,3.19
2023-02-26T22:19:36.139Z,3.14
2023-02-26T22:22:03.153Z,3.10
2023-02-26T22:24:30.145Z,3.06
2023-02-26T22:26:57.414Z,3.05
2023-02-26T22:29:24.491Z,3.00
2023-02-26T22:31:52.114Z,3.02
2023-02-26T22:34:19.088Z,2.97
2023-02-26T22:36:46.326Z,2.92
2023-02-26T22:39:14.008Z,2.83
2023-02-26T22:41:40.949Z,2.79
2023-02-26T22:44:07.891Z,2.87
2023-02-26T22:46:34.972Z,2.87
2023-02-26T22:49:01.855Z,2.86
2023-02-26T22:51:30.097Z,2.81
2023-02-26T22:53:57.010Z,2.84
2023-02-26T22:56:24.282Z,2.56
2023-02-26T22:58:51.543Z,2.65
2023-02-26T23:01:19.396Z,2.69
2023-02-26T23:03:46.811Z,2.62
2023-02-26T23:06:14.575Z,2.60
2023-02-26T23:08:41.602Z,2.56
2023-02-26T23:11:08.849Z,2.57
2023-02-26T23:13:36.504Z,2.64
2023-02-26T23:16:06.046Z,2.57
2023-02-26T23:18:34.308Z,2.51
2023-02-26T23:21:01.065Z,2.49
2023-02-26T23:23:28.173Z,2.47
2023-02-26T23:25:55.454Z,2.51
2023-02-26T23:28:25.176Z,2.49
2023-02-26T23:30:52.486Z,2.52
2023-02-26T23:33:19.504Z,2.51
2023-02-26T23:35:46.496Z,2.54
2023-02-26T23:38:13.566Z,2.42
2023-02-26T23:40:40.500Z,2.44
2023-02-26T23:43:07.479Z,2.43
2023-02-26T23:45:34.541Z,2.47
2023-02-26T23:48:01.454Z,2.44
2023-02-26T23:50:28.393Z,2.43
2023-02-26T23:52:55.486Z,2.41
2023-02-26T23:55:22.502Z,2.45
2023-02-26T23:57:49.529Z,2.45
